Time;durP1;ratioP1;P1;durP2;ratioP2;P2;SDS_P1;SDS_P2;PMS_P1;PMS_P2;Temp;Humidity;BMP_temperature;BMP_pressure;BME280_temperature;BME280_humidity;BME280_pressure;Samples;Min_cycle;Max_cycle;Signal;HPM_P1;HPM_P2
2021/05/15 00:00:45;;;;;;;2.63;2.08;;;;;;;10.33;86.70;96011.30;128046;1096;22782;-86
2021/05/15 00:03:20;;;;;;;4.00;2.65;;;;;;;10.33;86.54;96017.38;128126;1101;22753;-85
2021/05/15 00:05:50;;;;;;;2.40;2.10;;;;;;;10.32;86.62;96015.80;128138;1101;22844;-85
2021/05/15 00:08:19;;;;;;;4.78;2.68;;;;;;;10.30;86.58;96017.97;128050;1101;22771;-84
2021/05/15 00:10:49;;;;;;;2.75;2.53;;;;;;;10.31;86.64;96024.05;128070;1101;22825;-84
2021/05/15 00:13:20;;;;;;;3.93;2.70;;;;;;;10.30;86.48;96017.97;128066;1096;26467;-83
2021/05/15 00:15:50;;;;;;;5.20;2.78;;;;;;;10.31;86.50;96016.10;128083;1101;22750;-84
2021/05/15 00:18:20;;;;;;;3.18;2.18;;;;;;;10.29;86.68;96018.26;128062;1101;22842;-84
2021/05/15 00:20:50;;;;;;;2.70;2.30;;;;;;;10.28;86.55;96019.34;128068;1101;23478;-83
2021/05/15 00:23:20;;;;;;;3.00;2.70;;;;;;;10.27;86.81;96023.81;128038;1101;22753;-84
2021/05/15 00:25:50;;;;;;;3.28;2.30;;;;;;;10.26;86.38;96024.11;128064;1101;24394;-84
2021/05/15 00:28:20;;;;;;;3.30;2.15;;;;;;;10.27;86.26;96023.03;128062;1101;22768;-84
2021/05/15 00:30:50;;;;;;;3.68;2.53;;;;;;;10.27;86.56;96023.03;128099;1101;23528;-84
2021/05/15 00:33:29;;;;;;;3.80;2.73;;;;;;;10.25;86.83;96022.55;128046;1101;22757;-83
2021/05/15 00:35:59;;;;;;;3.45;2.55;;;;;;;10.24;86.81;96026.27;128043;1101;22788;-84
2021/05/15 00:38:29;;;;;;;4.85;2.80;;;;;;;10.24;87.04;96028.92;128029;1101;22760;-83
2021/05/15 00:40:59;;;;;;;3.98;2.48;;;;;;;10.23;86.80;96027.34;128074;1101;22760;-83
2021/05/15 00:43:29;;;;;;;2.50;2.30;;;;;;;10.22;86.78;96021.27;128134;1101;22812;-84
2021/05/15 00:45:59;;;;;;;3.30;2.50;;;;;;;10.23;86.79;96027.34;128149;1101;22709;-83
2021/05/15 00:48:29;;;;;;;4.25;2.45;;;;;;;10.23;86.52;96027.34;128036;1101;22857;-84
2021/05/15 00:50:59;;;;;;;4.50;2.47;;;;;;;10.25;86.40;96033.14;128077;1095;26248;-86
2021/05/15 00:53:29;;;;;;;3.13;2.35;;;;;;;10.25;86.38;96023.33;128059;1101;22757;-83
2021/05/15 00:55:58;;;;;;;3.03;2.10;;;;;;;10.27;86.43;96030.98;128049;1101;22738;-83
2021/05/15 00:58:28;;;;;;;4.33;2.78;;;;;;;10.24;86.47;96021.76;128060;1101;24554;-83
2021/05/15 01:00:58;;;;;;;4.38;2.75;;;;;;;10.21;86.63;96026.83;128062;1101;22753;-84
2021/05/15 01:03:28;;;;;;;5.43;3.13;;;;;;;10.17;86.76;96028.48;128106;1101;22767;-84
2021/05/15 01:05:58;;;;;;;5.80;3.10;;;;;;;10.17;86.95;96029.27;128045;1101;22750;-83
2021/05/15 01:08:28;;;;;;;4.63;3.20;;;;;;;10.17;87.23;96020.54;128058;1095;27165;-83
2021/05/15 01:10:58;;;;;;;3.33;2.83;;;;;;;10.14;87.04;96027.20;128042;1096;22777;-83
2021/05/15 01:13:32;;;;;;;3.53;3.03;;;;;;;10.14;87.21;96026.42;128127;1101;22774;-84
2021/05/15 01:16:02;;;;;;;3.55;2.60;;;;;;;10.11;87.66;96025.11;128119;1096;22749;-84
2021/05/15 01:18:32;;;;;;;4.73;2.90;;;;;;;10.12;87.44;96031.98;128053;1101;22768;-84
2021/05/15 01:21:02;;;;;;;3.43;2.53;;;;;;;10.10;87.39;96032.27;128093;1101;22812;-84
2021/05/15 01:23:32;;;;;;;3.23;2.70;;;;;;;10.12;87.35;96029.33;128113;1101;22753;-83
2021/05/15 01:26:13;;;;;;;3.98;3.28;;;;;;;10.12;87.40;96030.12;128137;1101;22839;-84
2021/05/15 01:28:44;;;;;;;4.00;3.15;;;;;;;10.11;87.52;96036.49;128155;1101;22784;-83
2021/05/15 01:31:14;;;;;;;3.63;2.88;;;;;;;10.09;87.38;96038.64;128141;1101;22749;-85
2021/05/15 01:33:43;;;;;;;;;;;;;;;10.08;87.58;96031.78;128078;1101;22757;-86
2021/05/15 01:36:14;;;;;;;8.28;2.93;;;;;;;10.06;87.75;96028.64;128072;1101;21461;-84
2021/05/15 01:38:44;;;;;;;4.63;3.48;;;;;;;10.05;87.90;96028.93;128048;1101;23402;-86
2021/05/15 01:41:16;;;;;;;3.08;2.43;;;;;;;10.04;88.25;96030.80;128036;1101;22743;-85
2021/05/15 01:43:47;;;;;;;3.13;2.70;;;;;;;10.05;88.23;96028.93;128095;1101;22750;-85
2021/05/15 01:46:17;;;;;;;3.90;2.93;;;;;;;10.04;88.19;96027.36;128053;1101;22856;-87
2021/05/15 01:48:47;;;;;;;4.55;2.73;;;;;;;10.04;87.92;96036.09;128073;1101;22778;-86
2021/05/15 01:51:17;;;;;;;3.38;2.45;;;;;;;10.07;88.02;96024.13;128068;1101;22753;-86
2021/05/15 01:53:50;;;;;;;3.58;2.38;;;;;;;10.09;88.01;96024.63;128076;1096;22781;-85
2021/05/15 01:56:22;;;;;;;4.30;2.98;;;;;;;10.08;87.81;96031.78;128048;1101;22757;-84
2021/05/15 01:58:53;;;;;;;4.98;2.98;;;;;;;10.11;87.82;96030.41;128116;1101;22741;-82
2021/05/15 02:01:24;;;;;;;4.05;2.60;;;;;;;10.12;88.12;96029.33;128065;1101;22753;-84
2021/05/15 02:03:54;;;;;;;4.23;2.93;;;;;;;10.09;88.18;96028.05;128081;1101;22766;-88
2021/05/15 02:06:24;;;;;;;3.13;2.30;;;;;;;10.09;87.94;96036.00;128022;1101;22757;-84
2021/05/15 02:08:54;;;;;;;3.68;2.70;;;;;;;10.11;87.81;96030.41;128073;1094;26251;-85
2021/05/15 02:11:24;;;;;;;4.35;3.38;;;;;;;10.09;87.88;96028.05;128034;1101;22932;-84
2021/05/15 02:13:54;;;;;;;2.83;1.97;;;;;;;10.08;87.89;96029.13;128064;1101;22750;-86
2021/05/15 02:16:23;;;;;;;4.03;3.13;;;;;;;10.08;87.63;96034.43;128034;1101;22916;-84
2021/05/15 02:18:53;;;;;;;3.10;2.70;;;;;;;10.07;87.67;96030.20;128079;1101;22777;-83
2021/05/15 02:21:23;;;;;;;3.90;2.40;;;;;;;10.09;87.73;96028.05;128066;1101;24544;-84
2021/05/15 02:23:53;;;;;;;4.03;2.63;;;;;;;10.09;87.63;96028.05;128020;1101;22779;-85
2021/05/15 02:26:23;;;;;;;2.98;2.33;;;;;;;10.09;87.69;96033.35;128073;1101;22900;-84
2021/05/15 02:28:53;;;;;;;3.25;2.30;;;;;;;10.09;87.59;96024.63;128068;1101;22802;-83
2021/05/15 02:31:23;;;;;;;3.80;2.63;;;;;;;10.10;87.78;96024.33;128071;1101;22854;-86
2021/05/15 02:33:53;;;;;;;4.15;2.83;;;;;;;10.09;87.78;96028.05;128066;1101;22779;-84
2021/05/15 02:36:23;;;;;;;5.33;2.78;;;;;;;10.09;87.53;96029.92;128052;1101;22850;-83
2021/05/15 02:38:53;;;;;;;4.93;2.75;;;;;;;10.11;87.78;96028.55;128073;1101;22813;-84
2021/05/15 02:41:22;;;;;;;3.23;2.53;;;;;;;10.14;87.50;96023.77;128047;1101;22768;-84
2021/05/15 02:43:52;;;;;;;2.98;2.60;;;;;;;10.15;87.34;96031.43;128109;1101;22759;-83
2021/05/15 02:46:22;;;;;;;4.83;2.78;;;;;;;10.16;87.46;96033.00;128071;1101;22784;-83
2021/05/15 02:48:52;;;;;;;4.67;3.13;;;;;;;10.14;87.81;96029.86;128077;1101;22770;-83
2021/05/15 02:51:22;;;;;;;3.45;2.40;;;;;;;10.14;87.60;96029.07;128055;1101;22770;-83
2021/05/15 02:53:53;;;;;;;4.08;2.85;;;;;;;10.13;87.96;96025.61;128034;1101;22768;-84
2021/05/15 02:56:23;;;;;;;2.80;2.48;;;;;;;10.12;87.49;96030.12;128046;1101;22792;-84
2021/05/15 02:58:53;;;;;;;3.33;2.75;;;;;;;10.13;87.58;96028.26;128047;1101;22770;-83
2021/05/15 03:01:23;;;;;;;3.08;2.70;;;;;;;10.16;87.30;96024.27;128125;1101;22757;-84
2021/05/15 03:03:53;;;;;;;4.75;3.05;;;;;;;10.17;87.45;96020.54;128142;1101;23805;-84
2021/05/15 03:06:23;;;;;;;4.03;2.93;;;;;;;10.17;87.36;96028.48;128129;1101;22750;-84
2021/05/15 03:08:52;;;;;;;2.97;2.67;;;;;;;10.18;87.24;96027.41;128074;1101;22750;-84
2021/05/15 03:11:22;;;;;;;5.57;2.83;;;;;;;10.18;87.19;96025.55;128083;1101;23294;-84
2021/05/15 03:13:52;;;;;;;3.63;2.70;;;;;;;10.20;87.03;96033.98;128083;1101;22745;-84
2021/05/15 03:16:22;;;;;;;3.70;2.73;;;;;;;10.21;87.03;96034.77;128067;1101;22750;-85
2021/05/15 03:18:52;;;;;;;3.65;2.80;;;;;;;10.22;86.90;96031.08;128061;1101;22773;-83
2021/05/15 03:21:21;;;;;;;3.50;2.93;;;;;;;10.21;87.19;96032.94;128078;1101;22759;-85
2021/05/15 03:23:52;;;;;;;3.88;2.45;;;;;;;10.21;86.90;96034.77;128050;1101;23746;-83
2021/05/15 03:26:22;;;;;;;3.53;2.43;;;;;;;10.22;87.06;96028.42;128057;1096;22830;-84
2021/05/15 03:28:52;;;;;;;4.70;2.98;;;;;;;10.20;86.98;96028.69;128044;1101;22777;-84
2021/05/15 03:31:21;;;;;;;3.35;2.53;;;;;;;10.24;86.99;96028.92;128043;1094;26761;-85
2021/05/15 03:33:51;;;;;;;3.40;2.43;;;;;;;10.25;86.96;96033.92;128060;1101;22767;-84
2021/05/15 03:36:22;;;;;;;3.40;2.60;;;;;;;10.28;86.97;96033.37;128061;1095;26244;-84
2021/05/15 03:38:52;;;;;;;4.20;2.83;;;;;;;10.31;86.91;96037.30;128032;1096;22780;-83
2021/05/15 03:41:22;;;;;;;5.53;2.80;;;;;;;10.28;86.72;96030.72;128064;1101;24398;-83
2021/05/15 03:43:52;;;;;;;5.23;2.63;;;;;;;10.30;86.78;96033.86;128088;1101;22780;-83
2021/05/15 03:46:22;;;;;;;3.20;2.60;;;;;;;10.33;86.56;96035.92;128075;1101;22868;-84
2021/05/15 03:48:52;;;;;;;3.90;2.60;;;;;;;10.36;86.18;96030.04;128086;1096;26761;-84
2021/05/15 03:51:22;;;;;;;2.63;1.93;;;;;;;10.39;86.49;96031.31;128090;1101;23549;-82
2021/05/15 03:53:51;;;;;;;3.77;2.60;;;;;;;10.39;86.43;96039.27;128068;1101;23663;-84
2021/05/15 03:56:21;;;;;;;5.35;2.38;;;;;;;10.42;86.42;96036.06;128025;1093;27135;-84
2021/05/15 03:58:52;;;;;;;4.80;2.58;;;;;;;10.48;86.31;96039.39;128075;1101;22753;-84
2021/05/15 04:01:22;;;;;;;2.55;1.85;;;;;;;10.53;86.07;96042.73;128023;1095;26200;-85
2021/05/15 04:03:52;;;;;;;2.58;2.00;;;;;;;10.61;85.45;96042.08;128065;1101;22742;-84
2021/05/15 04:06:22;;;;;;;3.23;2.15;;;;;;;10.69;85.48;96043.25;128050;1101;22762;-83
2021/05/15 04:08:51;;;;;;;3.18;2.35;;;;;;;10.74;85.21;96040.53;128085;1094;25871;-85
2021/05/15 04:11:22;;;;;;;3.68;2.63;;;;;;;10.83;85.30;96037.97;128030;1101;22818;-83
2021/05/15 04:13:53;;;;;;;3.47;2.47;;;;;;;10.91;85.24;96042.61;128051;1101;22763;-84
2021/05/15 04:16:26;;;;;;;3.80;2.30;;;;;;;10.93;84.56;96040.45;128038;1101;22774;-84
2021/05/15 04:18:56;;;;;;;3.50;2.55;;;;;;;10.95;84.52;96048.89;128042;1101;22750;-84
2021/05/15 04:21:26;;;;;;;3.07;2.43;;;;;;;10.94;84.35;96042.02;128022;1101;24394;-83
2021/05/15 04:23:56;;;;;;;5.13;2.53;;;;;;;10.86;84.41;96050.66;128064;1101;22735;-86
2021/05/15 04:26:26;;;;;;;4.58;2.40;;;;;;;10.78;84.34;96059.28;128045;1101;22757;-83
2021/05/15 04:28:55;;;;;;;3.03;2.28;;;;;;;10.70;84.66;96056.24;128051;1101;22754;-85
2021/05/15 04:31:25;;;;;;;2.83;2.33;;;;;;;10.66;84.36;96062.41;128051;1101;22924;-85
2021/05/15 04:33:55;;;;;;;4.38;2.70;;;;;;;10.66;84.59;96068.48;128059;1101;22780;-86
2021/05/15 04:36:25;;;;;;;4.23;2.93;;;;;;;10.67;84.67;96063.97;128115;1101;22874;-84
2021/05/15 04:38:55;;;;;;;3.48;2.60;;;;;;;10.72;84.71;96060.47;128091;1101;25434;-86
2021/05/15 04:41:24;;;;;;;3.70;2.70;;;;;;;10.76;84.30;96062.23;128137;1101;22738;-83
2021/05/15 04:43:55;;;;;;;3.00;2.50;;;;;;;10.83;84.01;96067.92;128087;1096;26647;-84
2021/05/15 04:46:25;;;;;;;3.53;2.30;;;;;;;11.29;84.10;96064.44;128073;1101;22801;-84
2021/05/15 04:48:54;;;;;;;3.83;2.73;;;;;;;11.61;83.03;96071.48;128073;1101;22787;-85
2021/05/15 04:51:24;;;;;;;5.90;2.77;;;;;;;11.84;81.98;96069.70;128053;1101;22763;-85
2021/05/15 04:53:54;;;;;;;4.53;2.63;;;;;;;12.56;80.24;96069.63;128063;1101;22777;-84
2021/05/15 04:56:24;;;;;;;2.60;1.93;;;;;;;13.62;79.73;96071.34;128034;1101;22753;-84
2021/05/15 04:58:54;;;;;;;2.98;1.95;;;;;;;15.63;75.55;96084.11;128062;1101;22760;-84
2021/05/15 05:01:24;;;;;;;2.63;2.13;;;;;;;17.05;71.55;96075.88;128037;1101;22747;-84
2021/05/15 05:03:54;;;;;;;3.13;2.13;;;;;;;17.94;68.11;96080.58;128092;1096;26823;-84
2021/05/15 05:06:23;;;;;;;3.48;2.45;;;;;;;18.70;66.53;96079.69;128059;1101;22764;-86
2021/05/15 05:08:53;;;;;;;2.10;1.90;;;;;;;19.58;63.49;96074.25;128094;1101;24407;-86
2021/05/15 05:11:23;;;;;;;2.50;1.95;;;;;;;20.06;59.49;96071.09;128049;1101;22774;-84
2021/05/15 05:13:53;;;;;;;3.00;1.98;;;;;;;20.38;60.50;96090.59;128046;1101;23330;-84
2021/05/15 05:16:23;;;;;;;2.53;1.90;;;;;;;21.37;54.74;96079.38;128087;1101;22759;-85
2021/05/15 05:18:53;;;;;;;2.53;1.70;;;;;;;21.61;56.50;96084.39;128066;1101;22835;-84
2021/05/15 05:21:22;;;;;;;1.88;1.48;;;;;;;22.80;53.57;96077.48;128047;1101;22757;-84
2021/05/15 05:23:52;;;;;;;1.95;1.45;;;;;;;23.18;50.33;96076.36;128061;1101;22739;-84
2021/05/15 05:26:22;;;;;;;2.57;1.47;;;;;;;23.89;53.34;96073.45;128063;1101;22748;-87
2021/05/15 05:28:52;;;;;;;2.83;1.40;;;;;;;24.66;47.98;96082.39;128053;1101;22834;-85
2021/05/15 05:31:22;;;;;;;3.00;1.50;;;;;;;25.04;51.15;96083.66;128118;1101;22774;-85
2021/05/15 05:33:52;;;;;;;3.15;1.35;;;;;;;26.34;49.42;96078.59;128150;1101;22774;-84
2021/05/15 05:36:22;;;;;;;2.60;1.20;;;;;;;26.70;46.75;96081.95;128146;1101;22833;-89
2021/05/15 05:38:52;;;;;;;2.98;1.65;;;;;;;27.28;45.01;96082.42;128071;1101;24349;-86
2021/05/15 05:41:24;;;;;;;2.10;1.48;;;;;;;26.98;45.15;96086.47;128072;1101;22830;-85
2021/05/15 05:43:54;;;;;;;2.80;1.55;;;;;;;27.28;43.91;96080.47;128110;1096;22783;-88
2021/05/15 05:46:24;;;;;;;1.68;1.50;;;;;;;27.42;43.33;96079.60;128046;1101;22754;-85
2021/05/15 05:48:54;;;;;;;1.68;1.13;;;;;;;27.82;42.57;96089.03;128067;1101;22917;-85
2021/05/15 05:51:24;;;;;;;2.25;1.40;;;;;;;28.01;40.48;96084.95;128063;1101;22773;-85
2021/05/15 05:53:53;;;;;;;;;;;;;;;27.86;39.25;96078.09;128050;1101;22777;-86
2021/05/15 05:56:23;;;;;;;2.60;1.40;;;;;;;28.31;41.04;96078.84;128080;1096;21456;-85
2021/05/15 05:58:53;;;;;;;1.28;1.05;;;;;;;29.11;40.56;96075.49;128087;1101;22804;-85
2021/05/15 06:01:24;;;;;;;2.30;1.18;;;;;;;29.08;36.17;96086.47;128150;1094;22753;-87
2021/05/15 06:03:53;;;;;;;3.35;1.35;;;;;;;28.89;38.75;96087.91;128097;1101;22789;-84
2021/05/15 06:06:23;;;;;;;2.58;1.15;;;;;;;29.41;37.79;96074.65;128105;1101;22916;-85
2021/05/15 06:08:53;;;;;;;2.15;1.08;;;;;;;29.23;37.38;96085.08;128068;1101;22801;-86
2021/05/15 06:11:24;;;;;;;3.10;0.95;;;;;;;29.76;36.96;96089.73;128113;1101;22775;-86
2021/05/15 06:13:54;;;;;;;2.95;1.25;;;;;;;29.90;35.29;96085.98;128070;1101;22754;-85
2021/05/15 06:16:24;;;;;;;2.13;1.10;;;;;;;29.97;33.75;96096.78;128119;1096;26219;-86
2021/05/15 06:18:54;;;;;;;1.63;0.95;;;;;;;30.03;34.40;96095.13;128052;1101;22783;-85
2021/05/15 06:21:24;;;;;;;1.08;0.93;;;;;;;29.85;31.29;96091.94;128106;1101;22753;-87
2021/05/15 06:23:54;;;;;;;1.13;0.98;;;;;;;28.74;33.23;96097.44;128074;1101;24340;-86
2021/05/15 06:26:24;;;;;;;1.85;1.23;;;;;;;28.68;32.61;96094.36;128130;1101;23636;-85
2021/05/15 06:28:54;;;;;;;1.30;1.20;;;;;;;28.58;34.10;96098.02;128135;1101;22770;-86
2021/05/15 06:31:23;;;;;;;;;;;;;;;28.85;31.65;96093.36;128105;1101;22749;-87
2021/05/15 06:34:01;;;;;;;5.50;1.20;;;;;;;29.41;32.11;96092.99;128047;1101;21458;-86
2021/05/15 06:36:31;;;;;;;1.68;1.10;;;;;;;29.97;32.99;96094.05;128095;1101;22753;-85
2021/05/15 06:39:01;;;;;;;1.83;1.10;;;;;;;29.72;32.59;96089.03;128078;1101;22777;-87
2021/05/15 06:41:31;;;;;;;2.95;1.40;;;;;;;30.08;31.99;96091.16;128047;1101;22862;-86
2021/05/15 06:44:01;;;;;;;2.55;1.20;;;;;;;30.36;31.55;96089.86;128090;1096;26821;-85
2021/05/15 06:46:30;;;;;;;;;;;;;;;30.30;31.53;96094.28;128114;1101;22741;-87
2021/05/15 06:49:00;;;;;;;1.47;1.23;;;;;;;30.20;28.28;96092.52;128139;1101;23063;-88
2021/05/15 06:51:30;;;;;;;2.05;1.08;;;;;;;29.58;29.41;96091.22;128119;1101;23696;-86
2021/05/15 06:54:01;;;;;;;2.00;1.03;;;;;;;29.22;31.17;96088.99;128149;1093;23257;-90
2021/05/15 06:56:31;;;;;;;1.60;1.20;;;;;;;30.32;32.75;96089.16;128143;1101;22780;-87
2021/05/15 06:59:01;;;;;;;3.10;1.30;;;;;;;31.41;32.57;96087.31;128146;1101;22756;-87
2021/05/15 07:01:32;;;;;;;2.45;1.35;;;;;;;31.88;28.67;96083.03;128160;1101;22839;-88
2021/05/15 07:04:02;;;;;;;2.15;1.30;;;;;;;31.40;28.77;96078.33;128124;1101;22753;-87
2021/05/15 07:06:31;;;;;;;2.50;1.40;;;;;;;31.36;28.26;96074.11;128138;1101;22909;-86
2021/05/15 07:09:02;;;;;;;1.48;1.10;;;;;;;31.81;29.08;96075.00;128138;1101;22777;-87
2021/05/15 07:11:32;;;;;;;2.55;1.10;;;;;;;31.91;26.83;96081.39;128129;1101;22774;-85
2021/05/15 07:14:02;;;;;;;1.55;1.10;;;;;;;32.16;28.66;96078.01;128092;1101;24135;-85
2021/05/15 07:16:33;;;;;;;2.40;0.90;;;;;;;32.62;26.58;96078.73;128159;1101;22750;-85
2021/05/15 07:19:03;;;;;;;1.08;0.98;;;;;;;33.10;27.85;96072.25;128133;1094;25976;-86
2021/05/15 07:21:33;;;;;;;1.40;1.30;;;;;;;31.99;22.87;96073.77;128088;1101;22743;-84
2021/05/15 07:24:04;;;;;;;2.88;1.43;;;;;;;30.09;24.87;96077.07;128069;1101;24407;-86
2021/05/15 07:26:34;;;;;;;1.27;1.17;;;;;;;29.20;25.39;96077.72;128116;1101;22771;-85
2021/05/15 07:29:04;;;;;;;2.35;1.15;;;;;;;28.04;24.98;96073.27;128157;1101;22781;-86
2021/05/15 07:31:34;;;;;;;3.00;1.63;;;;;;;27.31;27.51;96074.26;128049;1101;22830;-85
2021/05/15 07:34:04;;;;;;;1.88;1.35;;;;;;;27.93;26.84;96067.91;128146;1101;22830;-88
2021/05/15 07:36:35;;;;;;;1.47;1.37;;;;;;;28.17;27.71;96077.02;128098;1101;23336;-86
2021/05/15 07:39:05;;;;;;;2.48;1.13;;;;;;;29.57;28.53;96076.02;128082;1101;22799;-86
2021/05/15 07:41:35;;;;;;;1.83;1.10;;;;;;;30.51;26.71;96085.66;128057;1096;26570;-85
2021/05/15 07:44:06;;;;;;;2.33;1.08;;;;;;;31.05;26.97;96085.34;128131;1101;22777;-85
2021/05/15 07:46:36;;;;;;;2.13;1.20;;;;;;;30.69;26.06;96077.13;128080;1101;22751;-85
2021/05/15 07:49:06;;;;;;;2.03;1.15;;;;;;;30.06;25.15;96086.11;128152;1101;22760;-88
2021/05/15 07:51:36;;;;;;;1.85;1.28;;;;;;;29.10;26.30;96081.37;128088;1101;22753;-86
2021/05/15 07:54:07;;;;;;;1.57;1.10;;;;;;;27.00;27.30;96088.80;128133;1101;24369;-88
2021/05/15 07:56:37;;;;;;;1.98;1.40;;;;;;;26.52;28.48;96094.86;128085;1095;26260;-85
2021/05/15 07:59:07;;;;;;;1.85;1.20;;;;;;;26.47;29.84;96087.89;128072;1101;23199;-87
2021/05/15 08:01:37;;;;;;;1.98;1.28;;;;;;;27.23;29.42;96078.19;128073;1094;26350;-84
2021/05/15 08:04:08;;;;;;;2.55;1.40;;;;;;;29.10;30.40;96081.37;128117;1096;26206;-86
2021/05/15 08:06:38;;;;;;;2.15;1.30;;;;;;;30.02;26.74;96074.45;128120;1101;22750;-86
2021/05/15 08:09:09;;;;;;;1.67;1.20;;;;;;;30.57;25.04;96075.77;128080;1101;22771;-87
2021/05/15 08:11:40;;;;;;;1.45;1.03;;;;;;;30.29;27.41;96079.07;128047;1101;22818;-85
2021/05/15 08:14:10;;;;;;;1.85;0.90;;;;;;;31.54;23.83;96077.22;128088;1101;22752;-85
2021/05/15 08:16:40;;;;;;;1.68;1.23;;;;;;;29.32;24.57;96079.11;128095;1101;22781;-85
2021/05/15 08:19:08;;;;;;;;;;;;;;;29.48;26.12;96074.58;128152;1101;22928;-86
2021/05/15 08:21:38;;;;;;;2.23;1.20;;;;;;;29.33;26.09;96081.42;128103;1101;21465;-85
2021/05/15 08:24:08;;;;;;;;;;;;;;;29.63;26.89;96085.28;128178;1101;22770;-86
2021/05/15 08:26:39;;;;;;;2.33;1.23;;;;;;;30.57;28.18;96083.98;128116;1101;23802;-84
2021/05/15 08:29:12;;;;;;;4.63;1.23;;;;;;;30.94;25.72;96079.32;128158;1101;22770;-86
2021/05/15 08:31:42;;;;;;;2.05;1.08;;;;;;;30.42;24.43;96086.23;128089;1101;22779;-88
2021/05/15 08:34:12;;;;;;;3.28;1.50;;;;;;;29.85;26.53;96079.05;128068;1101;22757;-87
2021/05/15 08:36:42;;;;;;;2.00;1.35;;;;;;;28.15;25.95;96084.80;128081;1101;22780;-85
2021/05/15 08:39:11;;;;;;;;;;;;;;;27.14;29.26;96086.79;128117;1101;23219;-89
2021/05/15 08:41:41;;;;;;;0.95;0.68;;;;;;;26.84;28.21;96084.60;128130;1095;21487;-85
2021/05/15 08:44:14;;;;;;;3.43;1.13;;;;;;;24.41;29.63;96095.83;128103;1101;22757;-85
2021/05/15 08:46:46;;;;;;;1.40;1.15;;;;;;;22.19;32.35;96103.00;128141;1101;22774;-86
2021/05/15 08:49:19;;;;;;;1.80;1.10;;;;;;;20.75;34.58;96101.76;128116;1101;22759;-84
2021/05/15 08:51:50;;;;;;;1.10;1.00;;;;;;;19.87;36.81;96108.73;128135;1101;22891;-86
2021/05/15 08:54:22;;;;;;;1.85;1.18;;;;;;;19.58;37.06;96114.58;128137;1101;22957;-89
2021/05/15 08:56:52;;;;;;;2.00;1.23;;;;;;;19.85;37.29;96106.40;128166;1094;26185;-86
2021/05/15 08:59:22;;;;;;;3.08;1.20;;;;;;;22.08;36.85;96102.06;128103;1101;22792;-87
2021/05/15 09:01:53;;;;;;;3.48;1.10;;;;;;;21.85;33.54;96100.19;128095;1101;22760;-86
2021/05/15 09:04:25;;;;;;;1.78;1.15;;;;;;;20.54;35.41;96101.33;128139;1101;22815;-84
2021/05/15 09:06:55;;;;;;;3.07;1.33;;;;;;;20.29;36.84;96097.34;128113;1101;23679;-83
2021/05/15 09:09:25;;;;;;;2.43;1.43;;;;;;;21.54;38.07;96090.47;128085;1096;22751;-85
2021/05/15 09:11:55;;;;;;;2.38;1.58;;;;;;;21.79;35.44;96098.14;128046;1101;22771;-85
2021/05/15 09:14:27;;;;;;;1.85;1.15;;;;;;;20.97;36.72;96096.75;128039;1101;22747;-85
2021/05/15 09:16:59;;;;;;;2.08;1.30;;;;;;;20.44;36.80;96097.31;128054;1101;24391;-85
2021/05/15 09:19:30;;;;;;;1.60;1.13;;;;;;;20.31;38.34;96093.16;128064;1101;23494;-85
2021/05/15 09:22:03;;;;;;;3.00;1.40;;;;;;;20.74;37.39;96097.51;128104;1101;22751;-86
2021/05/15 09:24:35;;;;;;;2.38;1.15;;;;;;;20.52;38.36;96097.44;128131;1101;22750;-85
2021/05/15 09:27:08;;;;;;;4.68;1.80;;;;;;;20.91;39.47;96100.89;128072;1101;22774;-86
2021/05/15 09:29:45;;;;;;;1.93;1.18;;;;;;;21.30;37.76;96099.70;128161;1101;23045;-85
2021/05/15 09:32:28;;;;;;;2.85;1.38;;;;;;;21.59;38.01;96098.25;128069;1094;26283;-86
2021/05/15 09:34:59;;;;;;;2.45;1.40;;;;;;;21.51;36.92;96093.86;128087;1101;22820;-87
2021/05/15 09:37:31;;;;;;;1.28;1.18;;;;;;;21.16;37.79;96099.42;128074;1101;24615;-85
2021/05/15 09:40:14;;;;;;;1.90;1.23;;;;;;;20.60;37.76;96102.63;128039;1094;26207;-88
2021/05/15 09:42:52;;;;;;;5.58;1.20;;;;;;;20.08;38.91;96095.73;128091;1101;22754;-85
2021/05/15 09:45:24;;;;;;;2.65;1.35;;;;;;;19.64;39.84;96094.36;128082;1101;22815;-87
2021/05/15 09:47:57;;;;;;;3.33;1.30;;;;;;;19.63;40.28;96098.17;128078;1101;22777;-86
2021/05/15 09:50:29;;;;;;;1.88;1.40;;;;;;;19.90;40.38;96097.27;128106;1101;22788;-85
2021/05/15 09:53:15;;;;;;;1.53;1.43;;;;;;;20.11;39.88;96103.11;128053;1101;22846;-85
2021/05/15 09:55:53;;;;;;;1.80;1.37;;;;;;;20.21;40.06;96090.23;128075;1101;22757;-89
2021/05/15 09:58:27;;;;;;;4.30;1.40;;;;;;;20.07;40.44;96099.56;128042;1101;22764;-84
2021/05/15 10:00:57;;;;;;;2.43;1.70;;;;;;;20.20;39.73;96088.68;128059;1096;26360;-85
2021/05/15 10:03:29;;;;;;;3.13;1.55;;;;;;;20.02;39.39;96089.09;128083;1101;22919;-85
2021/05/15 10:06:05;;;;;;;1.60;1.30;;;;;;;19.94;40.08;96090.05;128148;1101;22743;-87
2021/05/15 10:08:39;;;;;;;2.07;1.30;;;;;;;20.74;39.66;96084.04;128113;1101;22732;-84
2021/05/15 10:11:11;;;;;;;3.58;1.50;;;;;;;21.40;39.66;96089.46;128049;1101;23894;-85
2021/05/15 10:13:43;;;;;;;1.88;1.40;;;;;;;21.83;40.99;96080.89;128072;1101;22738;-87
2021/05/15 10:16:13;;;;;;;2.13;1.30;;;;;;;22.17;39.50;96078.28;128055;1101;22773;-86
2021/05/15 10:18:43;;;;;;;2.15;1.58;;;;;;;21.82;39.95;96083.95;128059;1101;22749;-87
2021/05/15 10:21:13;;;;;;;2.13;1.40;;;;;;;21.64;40.81;96079.05;128073;1101;22757;-85
2021/05/15 10:23:45;;;;;;;3.90;1.43;;;;;;;21.53;40.98;96067.31;128018;1101;22780;-86
2021/05/15 10:26:22;;;;;;;3.33;2.00;;;;;;;21.01;39.75;96081.45;128053;1101;22757;-85
2021/05/15 10:29:02;;;;;;;2.28;1.60;;;;;;;20.24;40.85;96078.76;128067;1101;22758;-87
2021/05/15 10:31:40;;;;;;;3.15;1.88;;;;;;;19.61;41.96;96077.02;128127;1101;22767;-87
2021/05/15 10:34:11;;;;;;;3.08;1.90;;;;;;;19.10;42.29;96081.49;128059;1101;22754;-85
2021/05/15 10:36:49;;;;;;;2.37;1.60;;;;;;;18.76;42.98;96088.30;128078;1101;22757;-86
2021/05/15 10:39:30;;;;;;;2.63;1.80;;;;;;;18.56;44.13;96079.27;128063;1101;22923;-87
2021/05/15 10:42:02;;;;;;;4.18;1.85;;;;;;;18.64;44.90;96068.42;128139;1101;22759;-86
2021/05/15 10:44:42;;;;;;;3.50;1.55;;;;;;;18.79;44.43;96077.64;128089;1094;22757;-84
2021/05/15 10:47:12;;;;;;;2.58;1.83;;;;;;;18.95;45.08;96069.61;128069;1101;22756;-87
2021/05/15 10:49:44;;;;;;;3.73;1.70;;;;;;;19.19;45.44;96065.99;128072;1101;22958;-84
2021/05/15 10:52:16;;;;;;;3.05;1.58;;;;;;;19.38;45.11;96071.44;128078;1101;22756;-86
2021/05/15 10:54:50;;;;;;;2.90;1.83;;;;;;;19.66;44.92;96065.98;128086;1094;22750;-85
2021/05/15 10:57:26;;;;;;;2.75;1.68;;;;;;;19.98;45.81;96060.52;128055;1096;22759;-86
2021/05/15 11:00:01;;;;;;;2.87;2.10;;;;;;;20.29;44.74;96068.51;128064;1101;22759;-84
2021/05/15 11:02:36;;;;;;;2.05;1.45;;;;;;;20.80;45.37;96062.97;128092;1101;22750;-83
2021/05/15 11:05:13;;;;;;;2.48;1.83;;;;;;;21.36;43.34;96062.42;128053;1095;22783;-85
2021/05/15 11:07:43;;;;;;;2.13;1.70;;;;;;;21.38;43.30;96062.05;128093;1101;22784;-84
2021/05/15 11:10:17;;;;;;;2.73;1.65;;;;;;;21.15;42.52;96060.13;128087;1101;22788;-88
2021/05/15 11:12:49;;;;;;;1.68;1.53;;;;;;;20.92;43.20;96064.72;128147;1096;26378;-82
2021/05/15 11:15:21;;;;;;;2.98;1.90;;;;;;;20.83;43.63;96058.77;128113;1101;22853;-84
2021/05/15 11:18:04;;;;;;;2.40;1.75;;;;;;;20.81;43.73;96052.97;128072;1101;24467;-84
2021/05/15 11:20:44;;;;;;;3.78;2.08;;;;;;;20.53;43.13;96053.99;128057;1101;22753;-85
2021/05/15 11:23:19;;;;;;;3.38;1.75;;;;;;;20.45;43.90;96055.00;128111;1101;22747;-86
2021/05/15 11:25:56;;;;;;;1.93;1.20;;;;;;;20.49;44.13;96052.38;128099;1101;22774;-84
2021/05/15 11:28:28;;;;;;;2.83;1.60;;;;;;;20.53;43.53;96053.99;128096;1101;22747;-85
2021/05/15 11:30:59;;;;;;;2.43;1.95;;;;;;;20.24;43.68;96049.15;128051;1101;22757;-85
2021/05/15 11:33:29;;;;;;;;;;;;;;;20.33;43.78;96050.51;128065;1101;24343;-84
2021/05/15 11:36:00;;;;;;;3.15;2.00;;;;;;;20.45;43.55;96049.63;128107;1101;21520;-85
2021/05/15 11:38:31;;;;;;;2.50;1.80;;;;;;;20.10;43.79;96042.34;128056;1096;26503;-85
2021/05/15 11:41:03;;;;;;;3.68;1.60;;;;;;;20.05;44.24;96041.85;128100;1101;22787;-85
2021/05/15 11:43:36;;;;;;;2.53;1.98;;;;;;;20.24;45.62;96041.85;128058;1101;22761;-85